createdAt,value
2023-03-07T00:00:42.989Z,1.35
2023-03-07T00:03:11.473Z,1.50
2023-03-07T00:05:38.156Z,1.30
2023-03-07T00:08:04.656Z,1.90
2023-03-07T00:10:31.060Z,1.17
2023-03-07T00:12:57.387Z,1.80
2023-03-07T00:15:23.745Z,1.58
2023-03-07T00:17:50.100Z,1.00
2023-03-07T00:20:16.505Z,1.52
2023-03-07T00:22:43.597Z,1.27
2023-03-07T00:25:10.620Z,1.60
2023-03-07T00:27:37.098Z,1.58
2023-03-07T00:30:04.350Z,1.35
2023-03-07T00:32:31.295Z,1.52
2023-03-07T00:34:58.412Z,1.75
2023-03-07T00:37:25.051Z,1.50
2023-03-07T00:39:51.448Z,1.58
2023-03-07T00:42:17.844Z,1.48
2023-03-07T00:44:44.134Z,1.08
2023-03-07T00:47:10.441Z,1.33
2023-03-07T00:49:36.787Z,1.13
2023-03-07T00:52:03.197Z,1.17
2023-03-07T00:54:29.576Z,2.20
2023-03-07T00:56:55.922Z,1.85
2023-03-07T00:59:22.344Z,1.75
2023-03-07T01:01:48.838Z,1.55
2023-03-07T01:04:15.235Z,1.30
2023-03-07T01:06:41.725Z,1.20
2023-03-07T01:09:08.360Z,1.13
2023-03-07T01:11:35.421Z,1.13
2023-03-07T01:14:04.497Z,1.02
2023-03-07T01:16:32.216Z,0.95
2023-03-07T01:19:02.810Z,0.75
2023-03-07T01:21:30.589Z,1.20
2023-03-07T01:23:57.292Z,0.80
2023-03-07T01:26:25.308Z,0.95
2023-03-07T01:28:52.515Z,0.85
2023-03-07T01:31:18.968Z,0.80
2023-03-07T01:33:46.978Z,0.77
2023-03-07T01:36:17.957Z,0.90
2023-03-07T01:38:44.386Z,0.80
2023-03-07T01:41:10.731Z,0.88
2023-03-07T01:43:37.651Z,1.15
2023-03-07T01:46:22.508Z,1.33
2023-03-07T01:48:50.807Z,1.45
2023-03-07T01:51:17.683Z,0.63
2023-03-07T01:53:44.822Z,1.00
2023-03-07T01:56:11.286Z,1.30
2023-03-07T01:58:38.577Z,0.93
2023-03-07T02:01:08.882Z,1.30
2023-03-07T02:03:37.509Z,1.00
2023-03-07T02:06:05.754Z,1.00
2023-03-07T02:08:32.840Z,0.70
2023-03-07T02:10:59.161Z,1.40
2023-03-07T02:13:25.508Z,1.02
2023-03-07T02:15:51.939Z,0.90
2023-03-07T02:18:20.715Z,0.63
2023-03-07T02:20:47.268Z,0.77
2023-03-07T02:23:19.327Z,1.17
2023-03-07T02:25:59.753Z,0.80
2023-03-07T02:28:26.885Z,1.13
2023-03-07T02:31:01.413Z,0.93
2023-03-07T02:33:28.867Z,0.85
2023-03-07T02:35:56.929Z,0.95
2023-03-07T02:38:23.833Z,1.30
2023-03-07T02:40:52.317Z,1.10
2023-03-07T02:43:19.349Z,1.00
2023-03-07T02:45:45.670Z,1.27
2023-03-07T02:48:12.140Z,1.55
2023-03-07T02:50:38.542Z,1.30
2023-03-07T02:53:05.246Z,1.35
2023-03-07T02:55:31.857Z,1.50
2023-03-07T02:57:58.301Z,1.35
2023-03-07T03:00:24.723Z,1.65
2023-03-07T03:02:51.116Z,1.20
2023-03-07T03:05:17.479Z,1.25
2023-03-07T03:07:43.823Z,0.90
2023-03-07T03:10:10.496Z,0.80
2023-03-07T03:12:37.041Z,1.60
2023-03-07T03:15:03.625Z,1.33
2023-03-07T03:17:30.027Z,1.73
2023-03-07T03:19:56.387Z,1.20
2023-03-07T03:22:22.724Z,2.17
2023-03-07T03:24:49.265Z,1.20
2023-03-07T03:27:15.642Z,1.10
2023-03-07T03:29:42.054Z,1.52
2023-03-07T03:32:08.791Z,1.38
2023-03-07T03:34:35.936Z,1.50
2023-03-07T03:37:02.297Z,1.10
2023-03-07T03:39:29.126Z,0.80
2023-03-07T03:41:57.067Z,0.98
2023-03-07T03:44:23.609Z,1.00
2023-03-07T03:46:49.963Z,0.98
2023-03-07T03:49:16.956Z,1.13
2023-03-07T03:51:43.356Z,0.80
2023-03-07T03:54:09.905Z,0.50
2023-03-07T03:56:36.245Z,0.90
2023-03-07T03:59:02.549Z,0.60
2023-03-07T04:01:29.028Z,0.82
2023-03-07T04:03:56.445Z,0.88
2023-03-07T04:06:23.867Z,0.80
2023-03-07T04:08:51.057Z,1.20
2023-03-07T04:11:17.468Z,0.70
2023-03-07T04:13:43.810Z,1.27
2023-03-07T04:16:10.312Z,0.70
2023-03-07T04:18:36.699Z,0.52
2023-03-07T04:21:03.416Z,0.63
2023-03-07T04:23:29.863Z,0.60
2023-03-07T04:25:57.274Z,0.30
2023-03-07T04:28:24.529Z,0.73
2023-03-07T04:30:52.596Z,0.43
2023-03-07T04:33:19.604Z,0.30
2023-03-07T04:35:46.261Z,0.80
2023-03-07T04:38:13.561Z,0.70
2023-03-07T04:40:39.962Z,0.60
2023-03-07T04:43:06.506Z,1.08
2023-03-07T04:45:37.250Z,0.88
2023-03-07T04:48:03.817Z,0.63
2023-03-07T04:50:30.145Z,0.70
2023-03-07T04:52:56.445Z,0.77
2023-03-07T04:55:22.899Z,0.90
2023-03-07T04:57:51.251Z,0.47
2023-03-07T05:00:18.423Z,0.68
2023-03-07T05:02:46.119Z,0.70
2023-03-07T05:05:12.469Z,0.57
2023-03-07T05:07:38.807Z,0.43
2023-03-07T05:10:05.388Z,0.52
2023-03-07T05:12:31.761Z,0.30
2023-03-07T05:14:58.149Z,0.60
2023-03-07T05:17:24.480Z,0.40
2023-03-07T05:19:50.915Z,0.82
2023-03-07T05:22:17.323Z,0.60
2023-03-07T05:24:43.711Z,0.40
2023-03-07T05:27:10.995Z,0.88
2023-03-07T05:29:37.309Z,0.43
2023-03-07T05:32:03.981Z,0.40
2023-03-07T05:34:30.318Z,0.40
2023-03-07T05:36:58.330Z,0.30
2023-03-07T05:39:25.242Z,0.50
2023-03-07T05:41:51.646Z,0.30
2023-03-07T05:44:17.976Z,0.50
2023-03-07T05:46:44.338Z,0.80
2023-03-07T05:49:10.696Z,0.43
2023-03-07T05:51:37.003Z,0.35
2023-03-07T05:54:03.449Z,0.32
2023-03-07T05:56:29.751Z,0.60
2023-03-07T05:58:56.082Z,0.30
2023-03-07T06:01:22.469Z,0.50
2023-03-07T06:03:48.913Z,0.63
2023-03-07T06:06:15.344Z,0.63
2023-03-07T06:08:41.677Z,0.40
2023-03-07T06:11:08.106Z,0.32
2023-03-07T06:13:34.442Z,0.47
2023-03-07T06:16:00.772Z,0.47
2023-03-07T06:18:27.152Z,0.20
2023-03-07T06:21:04.485Z,0.32
2023-03-07T06:23:32.661Z,0.75
2023-03-07T06:25:59.235Z,1.08
2023-03-07T06:28:25.854Z,0.40
2023-03-07T06:30:52.456Z,0.20
2023-03-07T06:33:19.156Z,0.28
2023-03-07T06:35:46.250Z,0.30
2023-03-07T06:38:14.208Z,0.57
2023-03-07T06:40:40.708Z,0.40
2023-03-07T06:43:07.082Z,0.35
2023-03-07T06:45:33.566Z,0.35
2023-03-07T06:48:00.128Z,0.30
2023-03-07T06:50:35.146Z,0.32
2023-03-07T06:53:02.177Z,0.40
2023-03-07T06:55:28.581Z,0.45
2023-03-07T06:57:55.091Z,0.30
2023-03-07T07:00:22.716Z,0.38
2023-03-07T07:02:49.915Z,0.40
2023-03-07T07:05:16.467Z,0.30
2023-03-07T07:07:42.841Z,0.40
2023-03-07T07:10:09.612Z,0.22
2023-03-07T07:12:35.978Z,0.30
2023-03-07T07:15:02.412Z,0.38
2023-03-07T07:17:29.438Z,0.35
2023-03-07T07:19:55.766Z,0.60
2023-03-07T07:22:23.141Z,0.50
2023-03-07T07:24:49.814Z,0.57
2023-03-07T07:27:16.144Z,0.93
2023-03-07T07:29:42.474Z,0.28
2023-03-07T07:32:08.996Z,0.68
2023-03-07T07:34:35.495Z,0.70
2023-03-07T07:37:01.903Z,0.32
2023-03-07T07:39:28.280Z,0.30
2023-03-07T07:41:54.622Z,0.80
2023-03-07T07:44:20.984Z,0.40
2023-03-07T07:46:47.320Z,0.20
2023-03-07T07:49:13.663Z,0.30
2023-03-07T07:51:41.056Z,0.40
2023-03-07T07:54:08.905Z,0.45
2023-03-07T07:56:35.325Z,0.38
2023-03-07T07:59:01.793Z,0.22
2023-03-07T08:01:28.141Z,0.40
2023-03-07T08:03:54.585Z,0.30
2023-03-07T08:06:22.135Z,0.40
2023-03-07T08:08:48.712Z,0.38
2023-03-07T08:11:15.784Z,0.30
2023-03-07T08:13:42.209Z,0.35
2023-03-07T08:16:09.503Z,0.77
2023-03-07T08:18:35.856Z,0.40
2023-03-07T08:21:02.253Z,0.32
2023-03-07T08:23:28.600Z,0.30
2023-03-07T08:25:54.897Z,0.50
2023-03-07T08:28:21.320Z,0.75
2023-03-07T08:30:47.824Z,0.35
2023-03-07T08:33:14.353Z,0.60
2023-03-07T08:35:40.710Z,0.50
2023-03-07T08:38:07.136Z,0.63
2023-03-07T08:40:33.495Z,1.23
2023-03-07T08:43:00.043Z,0.68
2023-03-07T08:45:26.860Z,0.70
2023-03-07T08:47:53.999Z,1.13
2023-03-07T08:50:24.360Z,2.05
2023-03-07T08:52:51.158Z,2.00
2023-03-07T08:55:17.837Z,1.13
2023-03-07T08:57:45.603Z,3.22
2023-03-07T09:00:12.421Z,1.00
2023-03-07T09:02:38.802Z,1.17
2023-03-07T09:05:05.377Z,0.60
2023-03-07T09:07:32.092Z,0.55
2023-03-07T09:09:58.427Z,0.77
2023-03-07T09:12:24.913Z,0.35
2023-03-07T09:14:53.530Z,0.90
2023-03-07T09:17:19.934Z,0.50
2023-03-07T09:19:46.277Z,0.60
2023-03-07T09:22:12.664Z,0.55
2023-03-07T09:24:39.034Z,0.55
2023-03-07T09:27:05.426Z,0.50
2023-03-07T09:29:31.810Z,0.80
2023-03-07T09:31:58.110Z,0.80
2023-03-07T09:34:24.469Z,0.80
2023-03-07T09:36:51.529Z,0.85
2023-03-07T09:39:18.004Z,0.80
2023-03-07T09:41:56.883Z,0.52
2023-03-07T09:44:26.265Z,0.70
2023-03-07T09:47:04.181Z,1.08
2023-03-07T09:49:30.515Z,0.43
2023-03-07T09:51:58.678Z,0.50
2023-03-07T09:54:42.545Z,0.40
2023-03-07T09:57:15.734Z,0.60
2023-03-07T09:59:48.605Z,0.38
2023-03-07T10:02:21.322Z,0.38
2023-03-07T10:04:47.648Z,0.70
2023-03-07T10:07:15.538Z,0.30
2023-03-07T10:09:42.743Z,0.70
2023-03-07T10:12:22.753Z,0.50
2023-03-07T10:14:54.926Z,0.38
2023-03-07T10:17:38.718Z,0.30
2023-03-07T10:20:20.050Z,0.52
2023-03-07T10:22:58.227Z,0.50
2023-03-07T10:25:27.492Z,0.45
2023-03-07T10:27:59.495Z,0.60
2023-03-07T10:30:25.940Z,0.57
2023-03-07T10:32:56.054Z,0.57
2023-03-07T10:35:24.373Z,0.40
2023-03-07T10:37:53.522Z,0.52
2023-03-07T10:40:31.229Z,0.43
2023-03-07T10:42:58.568Z,0.40
2023-03-07T10:45:27.274Z,0.22
2023-03-07T10:47:53.641Z,0.47
2023-03-07T10:50:33.945Z,0.38
2023-03-07T10:53:01.246Z,0.60
2023-03-07T10:55:38.557Z,0.82
2023-03-07T10:58:21.986Z,0.45
2023-03-07T11:00:57.599Z,0.50
2023-03-07T11:03:23.909Z,0.20
2023-03-07T11:05:50.344Z,0.80
2023-03-07T11:08:28.817Z,0.30
2023-03-07T11:10:55.754Z,0.30
2023-03-07T11:13:22.766Z,0.40
2023-03-07T11:15:49.610Z,0.40
2023-03-07T11:18:37.157Z,0.60
2023-03-07T11:21:03.634Z,0.82
2023-03-07T11:23:31.485Z,0.52
2023-03-07T11:26:30.306Z,1.05
2023-03-07T11:29:10.779Z,0.40
2023-03-07T11:31:37.103Z,0.40
2023-03-07T11:34:22.140Z,0.30
2023-03-07T11:36:51.495Z,0.20
2023-03-07T11:39:29.641Z,0.20
2023-03-07T11:41:58.600Z,0.50
2023-03-07T11:44:31.064Z,0.25
2023-03-07T11:46:57.450Z,0.40
2023-03-07T11:49:28.799Z,0.20
2023-03-07T11:52:08.543Z,0.32
2023-03-07T11:54:43.791Z,0.43
2023-03-07T11:57:22.104Z,0.63
2023-03-07T12:00:00.774Z,0.30
2023-03-07T12:02:27.135Z,0.40
2023-03-07T12:05:02.723Z,0.30
2023-03-07T12:07:44.192Z,0.50
2023-03-07T12:10:42.669Z,0.70
2023-03-07T12:13:27.814Z,0.38
2023-03-07T12:16:03.183Z,0.32
2023-03-07T12:18:53.368Z,0.45
2023-03-07T12:21:37.358Z,0.40
2023-03-07T12:24:06.758Z,0.30
2023-03-07T12:26:33.067Z,0.50
2023-03-07T12:29:08.739Z,0.50
2023-03-07T12:31:37.893Z,0.43
2023-03-07T12:34:27.717Z,0.55
2023-03-07T12:36:56.419Z,0.28
2023-03-07T12:39:31.221Z,0.40
2023-03-07T12:42:01.698Z,0.50
2023-03-07T12:44:30.638Z,0.30
2023-03-07T12:47:00.317Z,0.32
2023-03-07T12:49:50.064Z,0.50
2023-03-07T12:52:30.284Z,0.30
2023-03-07T12:55:01.255Z,0.65
2023-03-07T12:57:33.055Z,0.50
2023-03-07T13:00:01.773Z,0.47
2023-03-07T13:02:29.903Z,0.45
2023-03-07T13:04:57.939Z,0.40
2023-03-07T13:07:25.843Z,0.57
2023-03-07T13:09:53.758Z,0.25
2023-03-07T13:12:31.148Z,0.40
2023-03-07T13:14:57.562Z,0.38
2023-03-07T13:17:26.731Z,0.50
2023-03-07T13:19:54.580Z,0.40
2023-03-07T13:22:20.907Z,0.47
2023-03-07T13:24:48.179Z,0.50
2023-03-07T13:27:28.724Z,0.63
2023-03-07T13:30:10.258Z,0.60
2023-03-07T13:32:48.988Z,0.40
2023-03-07T13:35:24.627Z,0.85
2023-03-07T13:37:52.345Z,0.68
2023-03-07T13:40:23.402Z,0.50
2023-03-07T13:42:49.830Z,0.50
2023-03-07T13:45:34.647Z,0.60
2023-03-07T13:48:01.054Z,0.50
2023-03-07T13:50:36.360Z,0.40
2023-03-07T13:53:04.088Z,0.52
2023-03-07T13:55:37.875Z,0.30
2023-03-07T13:58:15.171Z,0.38
2023-03-07T14:00:48.321Z,0.60
2023-03-07T14:03:38.046Z,0.30
2023-03-07T14:06:17.030Z,0.20
2023-03-07T14:08:44.941Z,0.60
2023-03-07T14:11:23.795Z,0.30
2023-03-07T14:13:56.618Z,0.40
2023-03-07T14:16:41.460Z,0.40
2023-03-07T14:19:07.881Z,0.35
2023-03-07T14:21:46.473Z,0.50
2023-03-07T14:24:26.440Z,0.20
2023-03-07T14:26:57.319Z,0.47
2023-03-07T14:29:27.839Z,0.40
2023-03-07T14:31:56.860Z,0.40
2023-03-07T14:34:28.336Z,0.50
2023-03-07T14:36:54.715Z,0.28
2023-03-07T14:39:21.884Z,0.30
2023-03-07T14:42:07.167Z,0.40
2023-03-07T14:44:39.297Z,0.30
2023-03-07T14:47:15.358Z,0.50
2023-03-07T14:49:44.837Z,0.52
2023-03-07T14:52:21.493Z,0.28
2023-03-07T14:54:58.091Z,0.28
2023-03-07T14:57:29.705Z,0.50
2023-03-07T15:00:14.833Z,0.30
2023-03-07T15:03:04.637Z,0.40
2023-03-07T15:05:32.606Z,0.30
2023-03-07T15:07:59.416Z,0.80
2023-03-07T15:10:28.807Z,0.25
2023-03-07T15:12:55.861Z,0.30
2023-03-07T15:15:37.089Z,0.30
2023-03-07T15:18:19.178Z,0.45
2023-03-07T15:20:46.273Z,0.32
2023-03-07T15:23:22.093Z,0.30
2023-03-07T15:28:19.358Z,0.30
2023-03-07T15:30:53.136Z,0.30
2023-03-07T15:33:20.037Z,0.40
2023-03-07T15:36:06.727Z,0.40
2023-03-07T15:38:33.470Z,0.40
2023-03-07T15:40:59.920Z,0.47
2023-03-07T15:46:59.264Z,0.50
2023-03-07T15:49:28.152Z,0.40
2023-03-07T15:51:57.097Z,0.32
2023-03-07T15:54:39.712Z,0.47
2023-03-07T15:57:26.337Z,0.30
2023-03-07T15:59:57.892Z,0.20
2023-03-07T16:02:44.673Z,0.20
2023-03-07T16:05:20.010Z,0.20
2023-03-07T16:07:46.966Z,0.25
2023-03-07T16:10:13.366Z,0.35
2023-03-07T16:12:46.164Z,0.35
2023-03-07T16:15:16.310Z,0.50
2023-03-07T16:17:43.249Z,0.52
2023-03-07T16:20:16.403Z,0.40
2023-03-07T16:22:44.418Z,0.50
2023-03-07T16:25:13.750Z,0.88
2023-03-07T16:27:40.933Z,0.60
2023-03-07T16:30:14.513Z,0.68
2023-03-07T16:32:41.006Z,0.40
2023-03-07T16:35:33.732Z,0.50
2023-03-07T16:38:00.234Z,0.40
2023-03-07T16:40:27.013Z,0.22
2023-03-07T16:42:53.631Z,0.30
2023-03-07T16:45:27.560Z,0.60
2023-03-07T16:47:54.968Z,0.30
2023-03-07T16:50:23.361Z,0.43
2023-03-07T16:52:49.773Z,0.55
2023-03-07T16:55:17.089Z,0.40
2023-03-07T16:57:47.879Z,0.60
2023-03-07T17:00:16.337Z,0.20
2023-03-07T17:02:43.101Z,1.05
2023-03-07T17:05:17.241Z,0.50
2023-03-07T17:07:43.732Z,0.30
2023-03-07T17:10:11.008Z,0.50
2023-03-07T17:12:37.363Z,0.30
2023-03-07T17:15:03.926Z,0.20
2023-03-07T17:17:33.112Z,0.28
2023-03-07T17:19:59.749Z,0.40
2023-03-07T17:22:26.125Z,0.55
2023-03-07T17:24:52.561Z,0.40
2023-03-07T17:27:18.943Z,0.30
2023-03-07T17:29:47.680Z,0.65
2023-03-07T17:32:14.057Z,0.80
2023-03-07T17:34:40.581Z,0.35
2023-03-07T17:37:07.185Z,0.40
2023-03-07T17:39:34.339Z,0.35
2023-03-07T17:42:01.063Z,0.30
2023-03-07T17:44:28.076Z,0.88
2023-03-07T17:46:54.883Z,0.35
2023-03-07T17:49:21.667Z,0.45
2023-03-07T17:51:53.011Z,0.60
2023-03-07T17:54:19.810Z,0.63
2023-03-07T17:56:46.193Z,0.52
2023-03-07T17:59:12.600Z,0.38
2023-03-07T18:01:40.004Z,0.35
2023-03-07T18:04:06.585Z,0.40
2023-03-07T18:06:33.931Z,0.80
2023-03-07T18:09:01.034Z,0.30
2023-03-07T18:11:27.853Z,0.45
2023-03-07T18:13:54.166Z,0.40
2023-03-07T18:16:20.484Z,0.95
2023-03-07T18:18:58.265Z,0.65
2023-03-07T18:21:26.456Z,0.30
2023-03-07T18:23:53.106Z,0.55
2023-03-07T18:26:20.057Z,0.47
2023-03-07T18:28:47.813Z,0.40
2023-03-07T18:31:19.333Z,0.98
2023-03-07T18:33:47.685Z,0.50
2023-03-07T18:36:15.101Z,0.50
2023-03-07T18:38:42.139Z,1.48
2023-03-07T18:41:09.805Z,0.73
2023-03-07T18:43:36.154Z,0.70
2023-03-07T18:46:06.430Z,0.45
2023-03-07T18:48:32.765Z,0.50
2023-03-07T18:51:00.166Z,0.50
2023-03-07T18:53:26.576Z,0.63
2023-03-07T18:55:53.077Z,1.52
2023-03-07T18:58:19.888Z,0.90
2023-03-07T19:00:46.578Z,0.52
2023-03-07T19:03:13.187Z,0.60
2023-03-07T19:05:46.580Z,0.57
2023-03-07T19:08:13.483Z,0.93
2023-03-07T19:10:39.864Z,1.70
2023-03-07T19:13:06.830Z,2.17
2023-03-07T19:15:33.868Z,0.70
2023-03-07T19:18:00.257Z,1.00
2023-03-07T19:20:27.268Z,0.50
2023-03-07T19:22:53.736Z,0.73
2023-03-07T19:25:20.575Z,0.50
2023-03-07T19:27:47.004Z,0.45
2023-03-07T19:30:15.043Z,0.30
2023-03-07T19:32:41.551Z,0.45
2023-03-07T19:35:08.175Z,0.70
2023-03-07T19:37:35.397Z,0.65
2023-03-07T19:40:01.853Z,0.55
2023-03-07T19:42:28.252Z,0.60
2023-03-07T19:44:54.729Z,0.60
2023-03-07T19:47:21.141Z,0.90
2023-03-07T19:49:48.137Z,0.77
2023-03-07T19:52:14.544Z,0.90
2023-03-07T19:54:40.893Z,0.90
2023-03-07T19:57:09.122Z,0.43
2023-03-07T19:59:35.463Z,0.70
2023-03-07T20:02:01.864Z,0.35
2023-03-07T20:04:28.213Z,0.50
2023-03-07T20:06:54.516Z,0.75
2023-03-07T20:09:20.905Z,0.63
2023-03-07T20:11:47.306Z,0.60
2023-03-07T20:14:13.743Z,0.55
2023-03-07T20:16:40.152Z,0.70
2023-03-07T20:19:08.547Z,0.90
2023-03-07T20:21:36.385Z,1.20
2023-03-07T20:24:03.016Z,1.13
2023-03-07T20:26:31.556Z,0.60
2023-03-07T20:28:58.628Z,0.40
2023-03-07T20:31:25.192Z,0.50
2023-03-07T20:33:51.693Z,0.38
2023-03-07T20:36:23.995Z,0.30
2023-03-07T20:38:51.562Z,0.40
2023-03-07T20:41:20.859Z,0.15
2023-03-07T20:43:47.659Z,0.40
2023-03-07T20:46:15.446Z,0.30
2023-03-07T20:48:43.038Z,0.40
2023-03-07T20:51:18.530Z,0.25
2023-03-07T20:54:05.370Z,0.25
2023-03-07T20:56:33.301Z,0.30
2023-03-07T20:59:00.114Z,0.30
2023-03-07T21:01:28.085Z,0.35
2023-03-07T21:03:55.156Z,0.30
2023-03-07T21:06:21.552Z,0.30
2023-03-07T21:08:48.085Z,0.20
2023-03-07T21:11:15.972Z,0.28
2023-03-07T21:13:43.352Z,0.20
2023-03-07T21:16:10.964Z,0.38
2023-03-07T21:18:37.706Z,0.30
2023-03-07T21:21:22.493Z,0.45
2023-03-07T21:23:48.908Z,0.63
2023-03-07T21:26:16.524Z,0.52
2023-03-07T21:28:43.051Z,0.60
2023-03-07T21:31:12.307Z,0.28
2023-03-07T21:33:39.288Z,0.40
2023-03-07T21:36:06.140Z,0.40
2023-03-07T21:38:33.825Z,0.40
2023-03-07T21:41:00.869Z,0.30
2023-03-07T21:43:27.338Z,0.30
2023-03-07T21:45:54.065Z,0.40
2023-03-07T21:48:20.628Z,0.50
2023-03-07T21:50:48.122Z,0.60
2023-03-07T21:53:14.515Z,0.60
2023-03-07T21:55:40.940Z,0.50
2023-03-07T21:58:07.327Z,0.70
2023-03-07T22:00:33.825Z,0.60
2023-03-07T22:03:00.215Z,0.98
2023-03-07T22:05:26.553Z,0.63
2023-03-07T22:07:52.880Z,0.90
2023-03-07T22:10:19.448Z,0.77
2023-03-07T22:12:45.865Z,0.85
2023-03-07T22:15:12.360Z,0.80
2023-03-07T22:17:38.730Z,0.95
2023-03-07T22:20:05.297Z,0.90
2023-03-07T22:22:31.688Z,0.90
2023-03-07T22:24:58.100Z,0.90
2023-03-07T22:27:24.477Z,0.70
2023-03-07T22:29:50.946Z,0.77
2023-03-07T22:32:17.322Z,0.73
2023-03-07T22:34:43.748Z,0.73
2023-03-07T22:37:10.121Z,0.90
2023-03-07T22:39:36.459Z,0.82
2023-03-07T22:42:02.851Z,0.88
2023-03-07T22:44:29.179Z,0.90
2023-03-07T22:46:56.211Z,1.00
2023-03-07T22:49:22.763Z,2.45
2023-03-07T22:51:49.106Z,0.73
2023-03-07T22:54:15.473Z,1.08
2023-03-07T22:56:41.901Z,0.90
2023-03-07T22:59:09.336Z,0.80
2023-03-07T23:01:35.768Z,0.90
2023-03-07T23:04:02.441Z,1.02
2023-03-07T23:06:30.016Z,1.30
2023-03-07T23:08:57.168Z,1.10
2023-03-07T23:11:24.660Z,1.85
2023-03-07T23:13:51.005Z,1.48
2023-03-07T23:16:18.706Z,2.00
2023-03-07T23:18:45.769Z,1.80
2023-03-07T23:21:13.723Z,1.63
2023-03-07T23:23:40.296Z,1.58
2023-03-07T23:26:07.169Z,1.65
2023-03-07T23:28:33.667Z,1.90
2023-03-07T23:31:00.524Z,1.33
2023-03-07T23:33:26.988Z,1.50
2023-03-07T23:35:53.451Z,1.48
2023-03-07T23:38:19.966Z,1.50
2023-03-07T23:40:46.271Z,1.38
2023-03-07T23:43:13.298Z,1.63
2023-03-07T23:45:39.947Z,1.58
2023-03-07T23:48:06.431Z,1.50
2023-03-07T23:50:32.824Z,1.30
2023-03-07T23:52:59.170Z,1.50
2023-03-07T23:55:25.569Z,1.20
2023-03-07T23:57:52.102Z,1.40
